sensor_id;sensor_type;location;lat;lon;timestamp;temperature;humidity
56162;DHT22;42045;52.986;6.014;2022-10-17T00:00:27;12.10;99.90
56162;DHT22;42045;52.986;6.014;2022-10-17T00:02:56;12.10;99.90
56162;DHT22;42045;52.986;6.014;2022-10-17T00:05:22;12.00;99.90
56162;DHT22;42045;52.986;6.014;2022-10-17T00:07:49;12.10;99.90
56162;DHT22;42045;52.986;6.014;2022-10-17T00:10:15;12.10;99.90
56162;DHT22;42045;52.986;6.014;2022-10-17T00:12:41;12.10;99.90
56162;DHT22;42045;52.986;6.014;2022-10-17T00:15:07;12.10;99.90
56162;DHT22;42045;52.986;6.014;2022-10-17T00:17:33;12.10;99.90
56162;DHT22;42045;52.986;6.014;2022-10-17T00:19:59;12.10;99.90
56162;DHT22;42045;52.986;6.014;2022-10-17T00:22:26;12.10;99.90
56162;DHT22;42045;52.986;6.014;2022-10-17T00:24:52;12.10;99.90
56162;DHT22;42045;52.986;6.014;2022-10-17T00:27:17;12.10;99.90
56162;DHT22;42045;52.986;6.014;2022-10-17T00:29:48;12.20;99.90
56162;DHT22;42045;52.986;6.014;2022-10-17T00:32:14;12.20;99.90
56162;DHT22;42045;52.986;6.014;2022-10-17T00:34:40;12.20;99.90
56162;DHT22;42045;52.986;6.014;2022-10-17T00:37:06;12.20;99.90
56162;DHT22;42045;52.986;6.014;2022-10-17T00:39:32;12.20;99.90
56162;DHT22;42045;52.986;6.014;2022-10-17T00:41:57;12.20;99.90
56162;DHT22;42045;52.986;6.014;2022-10-17T00:46:56;12.20;99.90
56162;DHT22;42045;52.986;6.014;2022-10-17T00:49:23;12.10;99.90
56162;DHT22;42045;52.986;6.014;2022-10-17T00:51:53;12.20;99.90
56162;DHT22;42045;52.986;6.014;2022-10-17T00:54:22;12.20;99.90
56162;DHT22;42045;52.986;6.014;2022-10-17T00:56:49;12.20;99.90
56162;DHT22;42045;52.986;6.014;2022-10-17T00:59:17;12.20;99.90
56162;DHT22;42045;52.986;6.014;2022-10-17T01:01:50;12.20;99.90
56162;DHT22;42045;52.986;6.014;2022-10-17T01:04:17;12.30;99.90
56162;DHT22;42045;52.986;6.014;2022-10-17T01:06:43;12.30;99.90
56162;DHT22;42045;52.986;6.014;2022-10-17T01:09:09;12.30;99.90
56162;DHT22;42045;52.986;6.014;2022-10-17T01:11:39;12.30;99.90
56162;DHT22;42045;52.986;6.014;2022-10-17T01:16:54;12.40;99.90
56162;DHT22;42045;52.986;6.014;2022-10-17T01:22:18;12.50;99.90
56162;DHT22;42045;52.986;6.014;2022-10-17T01:24:51;12.40;99.90
56162;DHT22;42045;52.986;6.014;2022-10-17T01:27:46;12.40;99.90
56162;DHT22;42045;52.986;6.014;2022-10-17T01:33:02;12.40;99.90
56162;DHT22;42045;52.986;6.014;2022-10-17T01:35:51;12.40;99.90
56162;DHT22;42045;52.986;6.014;2022-10-17T01:38:22;12.30;99.90
56162;DHT22;42045;52.986;6.014;2022-10-17T01:40:59;12.30;99.90
56162;DHT22;42045;52.986;6.014;2022-10-17T01:43:40;12.30;99.90
56162;DHT22;42045;52.986;6.014;2022-10-17T01:46:26;12.20;99.90
56162;DHT22;42045;52.986;6.014;2022-10-17T01:48:52;12.20;99.90
56162;DHT22;42045;52.986;6.014;2022-10-17T01:51:23;12.20;99.90
56162;DHT22;42045;52.986;6.014;2022-10-17T01:53:57;12.20;99.90
56162;DHT22;42045;52.986;6.014;2022-10-17T01:56:25;12.20;99.90
56162;DHT22;42045;52.986;6.014;2022-10-17T01:58:56;12.20;99.90
56162;DHT22;42045;52.986;6.014;2022-10-17T02:01:23;12.20;99.90
56162;DHT22;42045;52.986;6.014;2022-10-17T02:03:50;12.20;99.90
56162;DHT22;42045;52.986;6.014;2022-10-17T02:06:17;12.20;99.90
56162;DHT22;42045;52.986;6.014;2022-10-17T02:08:45;12.20;99.90
56162;DHT22;42045;52.986;6.014;2022-10-17T02:11:25;12.20;99.90
56162;DHT22;42045;52.986;6.014;2022-10-17T02:14:12;12.20;99.90
56162;DHT22;42045;52.986;6.014;2022-10-17T02:24:46;12.20;99.90
56162;DHT22;42045;52.986;6.014;2022-10-17T02:27:36;12.20;99.90
56162;DHT22;42045;52.986;6.014;2022-10-17T02:32:49;12.20;99.90
56162;DHT22;42045;52.986;6.014;2022-10-17T02:35:16;12.20;99.90
56162;DHT22;42045;52.986;6.014;2022-10-17T02:37:45;12.20;99.90
56162;DHT22;42045;52.986;6.014;2022-10-17T02:40:14;12.10;99.90
56162;DHT22;42045;52.986;6.014;2022-10-17T02:42:43;12.20;99.90
56162;DHT22;42045;52.986;6.014;2022-10-17T02:45:11;12.20;99.90
56162;DHT22;42045;52.986;6.014;2022-10-17T02:50:12;12.20;99.90
56162;DHT22;42045;52.986;6.014;2022-10-17T02:52:54;12.20;99.90
56162;DHT22;42045;52.986;6.014;2022-10-17T02:55:45;12.30;99.90
56162;DHT22;42045;52.986;6.014;2022-10-17T02:58:18;12.30;99.90
56162;DHT22;42045;52.986;6.014;2022-10-17T03:00:45;12.30;99.90
56162;DHT22;42045;52.986;6.014;2022-10-17T03:03:28;12.30;99.90
56162;DHT22;42045;52.986;6.014;2022-10-17T03:05:54;12.30;99.90
56162;DHT22;42045;52.986;6.014;2022-10-17T03:08:20;12.30;99.90
56162;DHT22;42045;52.986;6.014;2022-10-17T03:10:46;12.30;99.90
56162;DHT22;42045;52.986;6.014;2022-10-17T03:13:13;12.40;99.90
56162;DHT22;42045;52.986;6.014;2022-10-17T03:15:39;12.40;99.90
56162;DHT22;42045;52.986;6.014;2022-10-17T03:18:04;12.50;99.90
56162;DHT22;42045;52.986;6.014;2022-10-17T03:20:30;12.40;99.90
56162;DHT22;42045;52.986;6.014;2022-10-17T03:22:56;12.40;99.90
56162;DHT22;42045;52.986;6.014;2022-10-17T03:25:21;12.50;99.90
56162;DHT22;42045;52.986;6.014;2022-10-17T03:27:47;12.50;99.90
56162;DHT22;42045;52.986;6.014;2022-10-17T03:30:13;12.50;99.90
56162;DHT22;42045;52.986;6.014;2022-10-17T03:32:38;12.50;99.90
56162;DHT22;42045;52.986;6.014;2022-10-17T03:35:04;12.50;99.90
56162;DHT22;42045;52.986;6.014;2022-10-17T03:37:30;12.50;99.90
56162;DHT22;42045;52.986;6.014;2022-10-17T03:39:56;12.50;99.90
56162;DHT22;42045;52.986;6.014;2022-10-17T03:42:22;12.50;99.90
56162;DHT22;42045;52.986;6.014;2022-10-17T03:44:47;12.50;99.90
56162;DHT22;42045;52.986;6.014;2022-10-17T03:47:13;12.50;99.90
56162;DHT22;42045;52.986;6.014;2022-10-17T03:49:38;12.60;99.90
56162;DHT22;42045;52.986;6.014;2022-10-17T03:52:04;12.60;99.90
56162;DHT22;42045;52.986;6.014;2022-10-17T03:54:30;12.60;99.90
56162;DHT22;42045;52.986;6.014;2022-10-17T03:56:55;12.60;99.90
56162;DHT22;42045;52.986;6.014;2022-10-17T03:59:21;12.70;99.90
56162;DHT22;42045;52.986;6.014;2022-10-17T04:01:47;12.70;99.90
56162;DHT22;42045;52.986;6.014;2022-10-17T04:04:12;12.70;99.90
56162;DHT22;42045;52.986;6.014;2022-10-17T04:06:38;12.70;99.90
56162;DHT22;42045;52.986;6.014;2022-10-17T04:09:05;12.80;99.90
56162;DHT22;42045;52.986;6.014;2022-10-17T04:11:31;12.80;99.90
56162;DHT22;42045;52.986;6.014;2022-10-17T04:13:57;12.80;99.90
56162;DHT22;42045;52.986;6.014;2022-10-17T04:16:24;12.80;99.90
56162;DHT22;42045;52.986;6.014;2022-10-17T04:18:54;12.90;99.90
56162;DHT22;42045;52.986;6.014;2022-10-17T04:21:21;12.90;99.90
56162;DHT22;42045;52.986;6.014;2022-10-17T04:23:47;12.90;99.90
56162;DHT22;42045;52.986;6.014;2022-10-17T04:26:12;12.90;99.90
56162;DHT22;42045;52.986;6.014;2022-10-17T04:28:38;13.00;99.90
56162;DHT22;42045;52.986;6.014;2022-10-17T04:31:06;13.00;99.90
56162;DHT22;42045;52.986;6.014;2022-10-17T04:33:33;12.90;99.90
56162;DHT22;42045;52.986;6.014;2022-10-17T04:36:04;13.10;99.90
56162;DHT22;42045;52.986;6.014;2022-10-17T04:38:30;13.10;99.90
56162;DHT22;42045;52.986;6.014;2022-10-17T04:40:58;13.20;99.90
56162;DHT22;42045;52.986;6.014;2022-10-17T04:43:26;13.20;99.90
56162;DHT22;42045;52.986;6.014;2022-10-17T04:45:52;13.20;99.90
56162;DHT22;42045;52.986;6.014;2022-10-17T04:48:18;13.20;99.90
56162;DHT22;42045;52.986;6.014;2022-10-17T04:51:04;13.30;99.90
56162;DHT22;42045;52.986;6.014;2022-10-17T04:53:31;13.40;99.90
56162;DHT22;42045;52.986;6.014;2022-10-17T04:55:57;13.50;99.90
56162;DHT22;42045;52.986;6.014;2022-10-17T04:58:23;13.60;99.90
56162;DHT22;42045;52.986;6.014;2022-10-17T05:00:49;13.60;99.90
56162;DHT22;42045;52.986;6.014;2022-10-17T05:03:15;13.60;99.90
56162;DHT22;42045;52.986;6.014;2022-10-17T05:05:41;13.70;99.90
56162;DHT22;42045;52.986;6.014;2022-10-17T05:08:08;13.80;99.90
56162;DHT22;42045;52.986;6.014;2022-10-17T05:10:38;13.80;99.90
56162;DHT22;42045;52.986;6.014;2022-10-17T05:13:04;13.80;99.90
56162;DHT22;42045;52.986;6.014;2022-10-17T05:15:30;13.80;99.90
56162;DHT22;42045;52.986;6.014;2022-10-17T05:17:56;13.80;99.90
56162;DHT22;42045;52.986;6.014;2022-10-17T05:20:23;13.80;99.90
56162;DHT22;42045;52.986;6.014;2022-10-17T05:22:49;13.80;99.90
56162;DHT22;42045;52.986;6.014;2022-10-17T05:25:14;13.90;99.90
56162;DHT22;42045;52.986;6.014;2022-10-17T05:27:40;14.10;99.90
56162;DHT22;42045;52.986;6.014;2022-10-17T05:30:06;14.00;99.90
56162;DHT22;42045;52.986;6.014;2022-10-17T05:32:32;14.00;99.90
56162;DHT22;42045;52.986;6.014;2022-10-17T05:34:58;14.10;99.90
56162;DHT22;42045;52.986;6.014;2022-10-17T05:37:23;14.00;99.90
56162;DHT22;42045;52.986;6.014;2022-10-17T05:39:49;14.10;99.90
56162;DHT22;42045;52.986;6.014;2022-10-17T05:42:15;14.20;99.90
56162;DHT22;42045;52.986;6.014;2022-10-17T05:44:40;14.20;99.90
56162;DHT22;42045;52.986;6.014;2022-10-17T05:47:07;14.20;99.90
56162;DHT22;42045;52.986;6.014;2022-10-17T05:49:33;14.10;99.90
56162;DHT22;42045;52.986;6.014;2022-10-17T05:51:59;14.10;99.90
56162;DHT22;42045;52.986;6.014;2022-10-17T05:54:24;14.20;99.90
56162;DHT22;42045;52.986;6.014;2022-10-17T05:56:51;14.10;99.90
56162;DHT22;42045;52.986;6.014;2022-10-17T05:59:17;14.20;99.90
56162;DHT22;42045;52.986;6.014;2022-10-17T06:01:43;14.10;99.90
56162;DHT22;42045;52.986;6.014;2022-10-17T06:04:08;14.20;99.90
56162;DHT22;42045;52.986;6.014;2022-10-17T06:06:36;14.20;99.90
56162;DHT22;42045;52.986;6.014;2022-10-17T06:09:03;14.30;99.90
56162;DHT22;42045;52.986;6.014;2022-10-17T06:11:28;14.30;99.90
56162;DHT22;42045;52.986;6.014;2022-10-17T06:13:54;14.40;99.90
56162;DHT22;42045;52.986;6.014;2022-10-17T06:16:19;14.40;99.90
56162;DHT22;42045;52.986;6.014;2022-10-17T06:18:45;14.40;99.90
56162;DHT22;42045;52.986;6.014;2022-10-17T06:21:11;14.50;99.90
56162;DHT22;42045;52.986;6.014;2022-10-17T06:23:39;14.60;99.90
56162;DHT22;42045;52.986;6.014;2022-10-17T06:26:05;14.60;99.90
56162;DHT22;42045;52.986;6.014;2022-10-17T06:28:31;14.70;99.90
56162;DHT22;42045;52.986;6.014;2022-10-17T06:30:57;14.70;99.90
56162;DHT22;42045;52.986;6.014;2022-10-17T06:33:23;14.70;99.90
56162;DHT22;42045;52.986;6.014;2022-10-17T06:35:55;14.80;99.90
56162;DHT22;42045;52.986;6.014;2022-10-17T06:38:21;14.80;99.90
56162;DHT22;42045;52.986;6.014;2022-10-17T06:40:47;14.80;99.90
56162;DHT22;42045;52.986;6.014;2022-10-17T06:43:13;14.90;99.90
56162;DHT22;42045;52.986;6.014;2022-10-17T06:45:39;14.90;99.90
56162;DHT22;42045;52.986;6.014;2022-10-17T06:48:05;14.80;99.90
56162;DHT22;42045;52.986;6.014;2022-10-17T06:50:31;14.90;99.90
56162;DHT22;42045;52.986;6.014;2022-10-17T06:52:57;14.80;99.90
56162;DHT22;42045;52.986;6.014;2022-10-17T06:55:22;14.90;99.90
56162;DHT22;42045;52.986;6.014;2022-10-17T06:57:48;15.00;99.90
56162;DHT22;42045;52.986;6.014;2022-10-17T07:00:16;15.00;99.90
56162;DHT22;42045;52.986;6.014;2022-10-17T07:02:42;15.10;99.90
56162;DHT22;42045;52.986;6.014;2022-10-17T07:05:08;15.10;99.90
56162;DHT22;42045;52.986;6.014;2022-10-17T07:07:34;15.20;99.90
56162;DHT22;42045;52.986;6.014;2022-10-17T07:10:00;15.20;99.90
56162;DHT22;42045;52.986;6.014;2022-10-17T07:12:25;15.30;99.90
56162;DHT22;42045;52.986;6.014;2022-10-17T07:14:51;15.40;99.90
56162;DHT22;42045;52.986;6.014;2022-10-17T07:17:17;15.40;99.90
56162;DHT22;42045;52.986;6.014;2022-10-17T07:19:43;15.50;99.90
56162;DHT22;42045;52.986;6.014;2022-10-17T07:22:09;15.50;99.90
56162;DHT22;42045;52.986;6.014;2022-10-17T07:24:35;15.60;99.90
56162;DHT22;42045;52.986;6.014;2022-10-17T07:27:00;15.60;99.90
56162;DHT22;42045;52.986;6.014;2022-10-17T07:29:27;15.70;99.90
56162;DHT22;42045;52.986;6.014;2022-10-17T07:31:52;15.70;99.90
56162;DHT22;42045;52.986;6.014;2022-10-17T07:34:18;15.70;99.90
56162;DHT22;42045;52.986;6.014;2022-10-17T07:36:44;15.70;99.90
56162;DHT22;42045;52.986;6.014;2022-10-17T07:39:10;15.60;99.90
56162;DHT22;42045;52.986;6.014;2022-10-17T07:41:36;15.60;99.90
56162;DHT22;42045;52.986;6.014;2022-10-17T07:44:02;15.60;99.90
56162;DHT22;42045;52.986;6.014;2022-10-17T07:46:27;15.70;99.90
56162;DHT22;42045;52.986;6.014;2022-10-17T07:48:53;15.70;99.90
56162;DHT22;42045;52.986;6.014;2022-10-17T07:51:19;15.80;99.90
56162;DHT22;42045;52.986;6.014;2022-10-17T07:53:46;15.80;99.90
56162;DHT22;42045;52.986;6.014;2022-10-17T07:56:12;15.90;99.90
56162;DHT22;42045;52.986;6.014;2022-10-17T07:58:38;15.90;99.90
56162;DHT22;42045;52.986;6.014;2022-10-17T08:01:06;15.90;99.90
56162;DHT22;42045;52.986;6.014;2022-10-17T08:03:32;15.80;99.90
56162;DHT22;42045;52.986;6.014;2022-10-17T08:06:02;15.80;99.90
56162;DHT22;42045;52.986;6.014;2022-10-17T08:08:28;15.80;99.90
56162;DHT22;42045;52.986;6.014;2022-10-17T08:10:57;15.80;99.90
56162;DHT22;42045;52.986;6.014;2022-10-17T08:13:25;15.90;99.90
56162;DHT22;42045;52.986;6.014;2022-10-17T08:15:51;15.80;99.90
56162;DHT22;42045;52.986;6.014;2022-10-17T08:18:17;15.90;99.90
56162;DHT22;42045;52.986;6.014;2022-10-17T08:20:43;15.90;99.90
56162;DHT22;42045;52.986;6.014;2022-10-17T08:23:09;15.90;99.90
56162;DHT22;42045;52.986;6.014;2022-10-17T08:25:37;15.90;99.90
56162;DHT22;42045;52.986;6.014;2022-10-17T08:28:04;16.00;99.90
56162;DHT22;42045;52.986;6.014;2022-10-17T08:30:30;16.00;99.90
56162;DHT22;42045;52.986;6.014;2022-10-17T08:32:55;16.00;99.90
56162;DHT22;42045;52.986;6.014;2022-10-17T08:35:21;16.00;99.90
56162;DHT22;42045;52.986;6.014;2022-10-17T08:37:48;16.00;99.90
56162;DHT22;42045;52.986;6.014;2022-10-17T08:40:20;16.00;99.90
56162;DHT22;42045;52.986;6.014;2022-10-17T08:48:01;16.10;99.90
56162;DHT22;42045;52.986;6.014;2022-10-17T08:50:41;16.10;99.90
56162;DHT22;42045;52.986;6.014;2022-10-17T08:53:40;16.10;99.90
56162;DHT22;42045;52.986;6.014;2022-10-17T08:58:46;16.00;99.90
56162;DHT22;42045;52.986;6.014;2022-10-17T09:01:35;16.00;99.90
56162;DHT22;42045;52.986;6.014;2022-10-17T09:10:14;16.00;99.90
56162;DHT22;42045;52.986;6.014;2022-10-17T09:15:58;16.00;99.90
56162;DHT22;42045;52.986;6.014;2022-10-17T09:18:35;16.00;99.90
56162;DHT22;42045;52.986;6.014;2022-10-17T09:21:32;16.00;99.90
56162;DHT22;42045;52.986;6.014;2022-10-17T09:24:05;16.00;99.90
56162;DHT22;42045;52.986;6.014;2022-10-17T09:26:34;16.00;99.90
56162;DHT22;42045;52.986;6.014;2022-10-17T09:29:01;16.00;99.90
56162;DHT22;42045;52.986;6.014;2022-10-17T09:31:34;16.00;99.90
56162;DHT22;42045;52.986;6.014;2022-10-17T09:34:02;16.00;99.90
56162;DHT22;42045;52.986;6.014;2022-10-17T09:36:30;15.90;99.90
56162;DHT22;42045;52.986;6.014;2022-10-17T09:38:59;16.00;99.90
56162;DHT22;42045;52.986;6.014;2022-10-17T09:43:55;16.00;99.90
56162;DHT22;42045;52.986;6.014;2022-10-17T09:48:55;16.00;99.90
56162;DHT22;42045;52.986;6.014;2022-10-17T09:51:24;15.90;99.90
56162;DHT22;42045;52.986;6.014;2022-10-17T09:53:56;15.90;99.90
56162;DHT22;42045;52.986;6.014;2022-10-17T09:56:23;16.00;99.90
56162;DHT22;42045;52.986;6.014;2022-10-17T09:58:51;16.00;99.90
56162;DHT22;42045;52.986;6.014;2022-10-17T10:01:29;15.90;99.90
56162;DHT22;42045;52.986;6.014;2022-10-17T10:04:10;15.90;99.90
56162;DHT22;42045;52.986;6.014;2022-10-17T10:06:37;15.90;99.90
56162;DHT22;42045;52.986;6.014;2022-10-17T10:09:04;15.90;99.90
56162;DHT22;42045;52.986;6.014;2022-10-17T10:11:50;15.90;99.90
56162;DHT22;42045;52.986;6.014;2022-10-17T10:14:30;15.90;99.90
56162;DHT22;42045;52.986;6.014;2022-10-17T10:17:01;15.90;99.90
56162;DHT22;42045;52.986;6.014;2022-10-17T10:19:34;15.90;99.90
56162;DHT22;42045;52.986;6.014;2022-10-17T10:22:07;16.00;99.90
56162;DHT22;42045;52.986;6.014;2022-10-17T10:24:38;16.00;99.90
56162;DHT22;42045;52.986;6.014;2022-10-17T10:27:04;16.00;99.90
56162;DHT22;42045;52.986;6.014;2022-10-17T10:29:37;16.00;99.90
56162;DHT22;42045;52.986;6.014;2022-10-17T10:32:17;16.10;99.90
56162;DHT22;42045;52.986;6.014;2022-10-17T10:34:59;16.00;99.90
56162;DHT22;42045;52.986;6.014;2022-10-17T10:37:33;16.10;99.90
56162;DHT22;42045;52.986;6.014;2022-10-17T10:40:05;16.00;99.90
56162;DHT22;42045;52.986;6.014;2022-10-17T10:42:34;16.00;99.90
56162;DHT22;42045;52.986;6.014;2022-10-17T10:47:58;16.20;99.90
56162;DHT22;42045;52.986;6.014;2022-10-17T10:50:32;16.10;99.90
56162;DHT22;42045;52.986;6.014;2022-10-17T10:53:31;16.20;99.90
56162;DHT22;42045;52.986;6.014;2022-10-17T10:58:42;16.30;99.90
56162;DHT22;42045;52.986;6.014;2022-10-17T11:12:22;16.30;99.90
56162;DHT22;42045;52.986;6.014;2022-10-17T11:15:19;16.30;99.90
56162;DHT22;42045;52.986;6.014;2022-10-17T11:18:01;16.40;99.90
56162;DHT22;42045;52.986;6.014;2022-10-17T11:23:20;16.40;99.90
56162;DHT22;42045;52.986;6.014;2022-10-17T11:25:50;16.30;99.90
56162;DHT22;42045;52.986;6.014;2022-10-17T11:28:19;16.40;99.90
56162;DHT22;42045;52.986;6.014;2022-10-17T11:30:55;16.50;99.90
56162;DHT22;42045;52.986;6.014;2022-10-17T11:36:11;16.40;99.90
56162;DHT22;42045;52.986;6.014;2022-10-17T11:39:12;16.50;99.90
56162;DHT22;42045;52.986;6.014;2022-10-17T11:41:42;16.60;99.90
56162;DHT22;42045;52.986;6.014;2022-10-17T11:47:04;16.50;99.90
56162;DHT22;42045;52.986;6.014;2022-10-17T11:49:36;16.50;99.90
56162;DHT22;42045;52.986;6.014;2022-10-17T11:54:40;16.70;99.90
56162;DHT22;42045;52.986;6.014;2022-10-17T11:57:41;16.70;99.90
56162;DHT22;42045;52.986;6.014;2022-10-17T12:03:11;16.90;99.90
56162;DHT22;42045;52.986;6.014;2022-10-17T12:11:13;16.80;99.90
56162;DHT22;42045;52.986;6.014;2022-10-17T12:13:50;16.70;99.90
56162;DHT22;42045;52.986;6.014;2022-10-17T12:21:27;16.50;99.90
56162;DHT22;42045;52.986;6.014;2022-10-17T12:23:54;16.50;99.90
56162;DHT22;42045;52.986;6.014;2022-10-17T12:26:28;16.50;99.90
56162;DHT22;42045;52.986;6.014;2022-10-17T12:28:55;16.60;99.90
56162;DHT22;42045;52.986;6.014;2022-10-17T12:31:24;16.50;99.90
56162;DHT22;42045;52.986;6.014;2022-10-17T12:33:50;16.50;99.90
56162;DHT22;42045;52.986;6.014;2022-10-17T12:49:44;16.10;99.90
56162;DHT22;42045;52.986;6.014;2022-10-17T13:02:53;16.00;99.90
56162;DHT22;42045;52.986;6.014;2022-10-17T13:05:40;15.90;99.90
56162;DHT22;42045;52.986;6.014;2022-10-17T13:08:14;15.90;99.90
56162;DHT22;42045;52.986;6.014;2022-10-17T13:10:44;15.90;99.90
56162;DHT22;42045;52.986;6.014;2022-10-17T13:13:19;15.90;99.90
56162;DHT22;42045;52.986;6.014;2022-10-17T13:15:53;15.90;99.90
56162;DHT22;42045;52.986;6.014;2022-10-17T13:18:23;15.90;99.90
56162;DHT22;42045;52.986;6.014;2022-10-17T13:21:12;15.90;99.90
56162;DHT22;42045;52.986;6.014;2022-10-17T13:23:39;16.00;99.90
56162;DHT22;42045;52.986;6.014;2022-10-17T13:26:30;16.00;99.90
56162;DHT22;42045;52.986;6.014;2022-10-17T13:29:04;16.00;99.90
56162;DHT22;42045;52.986;6.014;2022-10-17T13:31:33;16.00;99.90
56162;DHT22;42045;52.986;6.014;2022-10-17T13:34:02;15.90;99.90
56162;DHT22;42045;52.986;6.014;2022-10-17T13:36:29;15.90;99.90
56162;DHT22;42045;52.986;6.014;2022-10-17T13:39:07;15.90;99.90
56162;DHT22;42045;52.986;6.014;2022-10-17T13:41:34;15.90;99.90
56162;DHT22;42045;52.986;6.014;2022-10-17T13:44:01;15.80;99.90
56162;DHT22;42045;52.986;6.014;2022-10-17T13:46:30;15.90;99.90
56162;DHT22;42045;52.986;6.014;2022-10-17T13:48:58;15.80;99.90
56162;DHT22;42045;52.986;6.014;2022-10-17T13:51:26;15.80;99.90
56162;DHT22;42045;52.986;6.014;2022-10-17T13:53:52;15.90;99.90
56162;DHT22;42045;52.986;6.014;2022-10-17T13:59:14;15.90;99.90
56162;DHT22;42045;52.986;6.014;2022-10-17T14:01:32;15.90;99.90
56162;DHT22;42045;52.986;6.014;2022-10-17T14:03:58;16.00;99.90
56162;DHT22;42045;52.986;6.014;2022-10-17T14:06:28;15.90;99.90
56162;DHT22;42045;52.986;6.014;2022-10-17T14:09:04;15.90;99.90
56162;DHT22;42045;52.986;6.014;2022-10-17T14:11:39;15.90;99.90
56162;DHT22;42045;52.986;6.014;2022-10-17T14:14:21;16.00;99.90
56162;DHT22;42045;52.986;6.014;2022-10-17T14:16:48;16.00;99.90
56162;DHT22;42045;52.986;6.014;2022-10-17T14:19:31;16.00;99.90
56162;DHT22;42045;52.986;6.014;2022-10-17T14:22:17;16.00;99.90
56162;DHT22;42045;52.986;6.014;2022-10-17T14:24:43;15.90;99.90
56162;DHT22;42045;52.986;6.014;2022-10-17T14:29:56;15.90;99.90
56162;DHT22;42045;52.986;6.014;2022-10-17T14:32:26;15.70;99.90
56162;DHT22;42045;52.986;6.014;2022-10-17T14:34:53;15.70;99.90
56162;DHT22;42045;52.986;6.014;2022-10-17T14:37:41;15.70;99.90
56162;DHT22;42045;52.986;6.014;2022-10-17T14:40:22;15.70;99.90
56162;DHT22;42045;52.986;6.014;2022-10-17T14:42:52;15.60;99.90
56162;DHT22;42045;52.986;6.014;2022-10-17T14:45:38;15.60;99.90
56162;DHT22;42045;52.986;6.014;2022-10-17T14:48:13;15.50;99.90
56162;DHT22;42045;52.986;6.014;2022-10-17T14:50:40;15.50;99.90
56162;DHT22;42045;52.986;6.014;2022-10-17T14:55:38;15.60;99.90
56162;DHT22;42045;52.986;6.014;2022-10-17T14:58:15;15.60;99.90
56162;DHT22;42045;52.986;6.014;2022-10-17T15:00:41;15.60;99.90
56162;DHT22;42045;52.986;6.014;2022-10-17T15:03:07;15.70;99.90
56162;DHT22;42045;52.986;6.014;2022-10-17T15:05:33;15.70;99.90
56162;DHT22;42045;52.986;6.014;2022-10-17T15:07:59;15.70;99.90
56162;DHT22;42045;52.986;6.014;2022-10-17T15:10:33;15.70;99.90
56162;DHT22;42045;52.986;6.014;2022-10-17T15:13:00;15.70;99.90
56162;DHT22;42045;52.986;6.014;2022-10-17T15:15:30;15.70;99.90
56162;DHT22;42045;52.986;6.014;2022-10-17T15:17:56;15.70;99.90
56162;DHT22;42045;52.986;6.014;2022-10-17T15:20:23;15.60;99.90
56162;DHT22;42045;52.986;6.014;2022-10-17T15:22:54;15.60;99.90
56162;DHT22;42045;52.986;6.014;2022-10-17T15:25:20;15.60;99.90
56162;DHT22;42045;52.986;6.014;2022-10-17T15:27:46;15.50;99.90
56162;DHT22;42045;52.986;6.014;2022-10-17T15:30:21;15.40;99.90
56162;DHT22;42045;52.986;6.014;2022-10-17T15:32:48;15.40;99.90
56162;DHT22;42045;52.986;6.014;2022-10-17T15:35:15;15.40;99.90
56162;DHT22;42045;52.986;6.014;2022-10-17T15:37:41;15.30;99.90
56162;DHT22;42045;52.986;6.014;2022-10-17T15:40:22;15.30;99.90
56162;DHT22;42045;52.986;6.014;2022-10-17T15:42:48;15.20;99.90
56162;DHT22;42045;52.986;6.014;2022-10-17T15:45:16;15.20;99.90
56162;DHT22;42045;52.986;6.014;2022-10-17T15:47:48;15.20;99.90
56162;DHT22;42045;52.986;6.014;2022-10-17T15:50:15;15.20;99.90
56162;DHT22;42045;52.986;6.014;2022-10-17T15:52:42;15.20;99.90
56162;DHT22;42045;52.986;6.014;2022-10-17T15:55:10;15.10;99.90
56162;DHT22;42045;52.986;6.014;2022-10-17T15:57:39;15.10;99.90
56162;DHT22;42045;52.986;6.014;2022-10-17T16:00:13;15.10;99.90
56162;DHT22;42045;52.986;6.014;2022-10-17T16:02:39;15.10;99.90
56162;DHT22;42045;52.986;6.014;2022-10-17T16:05:23;15.10;99.90
56162;DHT22;42045;52.986;6.014;2022-10-17T16:07:51;15.10;99.90
56162;DHT22;42045;52.986;6.014;2022-10-17T16:10:18;15.00;99.90
56162;DHT22;42045;52.986;6.014;2022-10-17T16:12:44;15.00;99.90
56162;DHT22;42045;52.986;6.014;2022-10-17T16:15:22;15.00;99.90
56162;DHT22;42045;52.986;6.014;2022-10-17T16:17:49;15.00;99.90
56162;DHT22;42045;52.986;6.014;2022-10-17T16:20:15;15.00;99.90
56162;DHT22;42045;52.986;6.014;2022-10-17T16:22:42;15.00;99.90
56162;DHT22;42045;52.986;6.014;2022-10-17T16:25:16;15.00;99.90
56162;DHT22;42045;52.986;6.014;2022-10-17T16:27:45;14.90;99.90
56162;DHT22;42045;52.986;6.014;2022-10-17T16:30:12;14.90;99.90
56162;DHT22;42045;52.986;6.014;2022-10-17T16:32:37;14.80;99.90
56162;DHT22;42045;52.986;6.014;2022-10-17T16:35:04;14.80;99.90
56162;DHT22;42045;52.986;6.014;2022-10-17T16:37:30;14.80;99.90
56162;DHT22;42045;52.986;6.014;2022-10-17T16:39:56;14.80;99.90
56162;DHT22;42045;52.986;6.014;2022-10-17T16:42:22;14.80;99.90
56162;DHT22;42045;52.986;6.014;2022-10-17T16:44:48;14.80;99.90
56162;DHT22;42045;52.986;6.014;2022-10-17T16:47:15;14.80;99.90
56162;DHT22;42045;52.986;6.014;2022-10-17T16:49:41;14.80;99.90
56162;DHT22;42045;52.986;6.014;2022-10-17T16:52:06;14.70;99.90
56162;DHT22;42045;52.986;6.014;2022-10-17T16:54:33;14.70;99.90
56162;DHT22;42045;52.986;6.014;2022-10-17T16:57:00;14.70;99.90
56162;DHT22;42045;52.986;6.014;2022-10-17T16:59:26;14.70;99.90
56162;DHT22;42045;52.986;6.014;2022-10-17T17:01:52;14.60;99.90
56162;DHT22;42045;52.986;6.014;2022-10-17T17:04:18;14.70;99.90
56162;DHT22;42045;52.986;6.014;2022-10-17T17:06:44;14.60;99.90
56162;DHT22;42045;52.986;6.014;2022-10-17T17:09:10;14.60;99.90
56162;DHT22;42045;52.986;6.014;2022-10-17T17:11:36;14.60;99.90
56162;DHT22;42045;52.986;6.014;2022-10-17T17:14:02;14.50;99.90
56162;DHT22;42045;52.986;6.014;2022-10-17T17:16:29;14.60;99.90
56162;DHT22;42045;52.986;6.014;2022-10-17T17:18:57;14.50;99.90
56162;DHT22;42045;52.986;6.014;2022-10-17T17:21:23;14.50;99.90
56162;DHT22;42045;52.986;6.014;2022-10-17T17:23:51;14.50;99.90
56162;DHT22;42045;52.986;6.014;2022-10-17T17:26:19;14.40;99.90
56162;DHT22;42045;52.986;6.014;2022-10-17T17:28:46;14.50;99.90
56162;DHT22;42045;52.986;6.014;2022-10-17T17:31:14;14.40;99.90
56162;DHT22;42045;52.986;6.014;2022-10-17T17:33:41;14.40;99.90
56162;DHT22;42045;52.986;6.014;2022-10-17T17:36:09;14.30;99.90
56162;DHT22;42045;52.986;6.014;2022-10-17T17:38:37;14.30;99.90
56162;DHT22;42045;52.986;6.014;2022-10-17T17:41:03;14.40;99.90
56162;DHT22;42045;52.986;6.014;2022-10-17T17:43:28;14.40;99.90